createdAt,value
2018-03-23T00:03:01.302Z,79.92
2018-03-23T00:06:04.582Z,80.55
2018-03-23T00:09:07.887Z,81.15
2018-03-23T00:12:11.150Z,80.87
2018-03-23T00:15:14.463Z,80.42
2018-03-23T00:18:17.754Z,80.60
2018-03-23T00:21:22.139Z,80.10
2018-03-23T00:24:25.437Z,80.48
2018-03-23T00:27:28.778Z,80.75
2018-03-23T00:30:32.062Z,80.74
2018-03-23T00:33:35.744Z,80.71
2018-03-23T00:36:39.750Z,80.71
2018-03-23T00:39:43.354Z,81.00
2018-03-23T00:42:47.061Z,80.93
2018-03-23T00:45:50.572Z,81.58
2018-03-23T00:48:54.981Z,81.88
2018-03-23T00:51:58.557Z,81.64
2018-03-23T00:55:01.817Z,81.78
2018-03-23T00:58:05.722Z,81.52
2018-03-23T01:01:09.511Z,81.69
2018-03-23T01:04:13.101Z,81.96
2018-03-23T01:07:17.064Z,81.95
2018-03-23T01:10:20.351Z,82.03
2018-03-23T01:13:23.624Z,82.16
2018-03-23T01:16:28.248Z,82.03
2018-03-23T01:19:31.739Z,82.07
2018-03-23T01:22:36.168Z,81.97
2018-03-23T01:25:39.749Z,81.89
2018-03-23T01:28:43.797Z,81.74
2018-03-23T01:31:47.473Z,82.41
2018-03-23T01:34:51.630Z,82.07
2018-03-23T01:37:55.235Z,81.81
2018-03-23T01:40:59.460Z,81.71
2018-03-23T01:44:02.761Z,81.73
2018-03-23T01:47:06.664Z,81.56
2018-03-23T01:50:10.372Z,81.61
2018-03-23T01:53:31.769Z,81.68
2018-03-23T01:56:36.511Z,81.85
2018-03-23T01:59:40.525Z,81.89
2018-03-23T02:02:43.820Z,82.95
2018-03-23T02:05:47.138Z,82.94
2018-03-23T02:08:50.451Z,82.90
2018-03-23T02:11:53.994Z,82.33
2018-03-23T02:14:57.252Z,82.24
2018-03-23T02:18:00.740Z,82.65
2018-03-23T02:21:04.009Z,82.80
2018-03-23T02:24:08.068Z,82.47
2018-03-23T02:27:11.614Z,82.93
2018-03-23T02:30:15.930Z,83.43
2018-03-23T02:33:21.449Z,82.75
2018-03-23T02:36:24.804Z,82.49
2018-03-23T02:39:28.145Z,82.15
2018-03-23T02:42:31.458Z,83.07
2018-03-23T02:45:34.844Z,83.38
2018-03-23T02:48:38.302Z,82.48
2018-03-23T02:51:41.732Z,82.35
2018-03-23T02:54:45.024Z,82.34
2018-03-23T02:57:48.310Z,82.37
2018-03-23T03:00:51.887Z,82.17
2018-03-23T03:03:55.941Z,82.97
2018-03-23T03:06:59.442Z,82.65
2018-03-23T03:10:02.727Z,82.97
2018-03-23T03:13:06.321Z,83.15
2018-03-23T03:16:09.926Z,83.01
2018-03-23T03:19:13.977Z,82.86
2018-03-23T03:22:17.265Z,82.95
2018-03-23T03:25:20.641Z,82.83
2018-03-23T03:28:23.962Z,82.67
2018-03-23T03:31:27.540Z,82.46
2018-03-23T03:34:31.569Z,82.72
2018-03-23T03:37:35.089Z,82.36
2018-03-23T03:40:38.408Z,82.77
2018-03-23T03:43:41.720Z,82.99
2018-03-23T03:46:45.061Z,82.85
2018-03-23T03:49:48.621Z,83.04
2018-03-23T03:52:51.888Z,83.56
2018-03-23T03:55:55.190Z,83.74
2018-03-23T03:58:58.888Z,83.69
2018-03-23T04:02:02.165Z,83.85
2018-03-23T04:05:05.570Z,83.49
2018-03-23T04:08:09.172Z,83.74
2018-03-23T04:11:12.767Z,83.89
2018-03-23T04:14:16.797Z,83.62
2018-03-23T04:17:20.050Z,83.71
2018-03-23T04:20:23.564Z,83.32
2018-03-23T04:23:27.012Z,83.57
2018-03-23T04:26:30.478Z,83.57
2018-03-23T04:29:34.589Z,83.64
2018-03-23T04:32:38.096Z,83.38
2018-03-23T04:35:42.228Z,83.63
2018-03-23T04:38:46.984Z,83.62
2018-03-23T04:41:50.537Z,84.44
2018-03-23T04:44:53.837Z,84.32
2018-03-23T04:47:57.198Z,84.41
2018-03-23T04:51:00.579Z,84.74
2018-03-23T04:54:03.878Z,84.77
2018-03-23T04:57:07.289Z,84.91
2018-03-23T05:00:10.770Z,84.83
2018-03-23T05:03:14.325Z,84.84
2018-03-23T05:06:18.005Z,84.78
2018-03-23T05:12:43.418Z,84.93
2018-03-23T05:15:46.856Z,84.32
2018-03-23T05:18:51.622Z,84.70
2018-03-23T05:22:00.226Z,84.58
2018-03-23T05:25:06.056Z,84.69
2018-03-23T05:28:14.247Z,84.17
2018-03-23T05:31:17.706Z,84.03
2018-03-23T05:34:21.642Z,84.05
2018-03-23T05:37:25.302Z,83.92
2018-03-23T05:40:28.941Z,83.32
2018-03-23T05:43:37.120Z,83.25
2018-03-23T05:46:41.495Z,83.11
2018-03-23T05:49:45.779Z,83.17
2018-03-23T05:52:49.521Z,83.41
2018-03-23T05:55:52.893Z,83.25
2018-03-23T05:58:56.333Z,83.12
2018-03-23T06:01:59.831Z,83.38
2018-03-23T06:05:03.272Z,83.36
2018-03-23T06:08:07.205Z,83.19
2018-03-23T06:11:11.639Z,83.52
2018-03-23T06:14:16.788Z,83.66
2018-03-23T06:17:21.183Z,83.49
2018-03-23T06:20:24.892Z,83.36
2018-03-23T06:23:28.514Z,83.19
2018-03-23T06:26:33.273Z,82.67
2018-03-23T06:29:38.190Z,82.63
2018-03-23T06:32:41.764Z,82.53
2018-03-23T06:35:45.042Z,82.06
2018-03-23T06:38:49.092Z,81.77
2018-03-23T06:41:52.379Z,82.20
2018-03-23T06:44:55.655Z,82.27
2018-03-23T06:47:59.392Z,81.61
2018-03-23T06:54:23.820Z,81.54
2018-03-23T06:57:27.943Z,81.59
2018-03-23T07:00:35.098Z,81.21
2018-03-23T07:03:39.867Z,81.68
2018-03-23T07:06:43.272Z,80.76
2018-03-23T07:09:46.550Z,80.13
2018-03-23T07:12:49.879Z,79.01
2018-03-23T07:15:53.262Z,79.09
2018-03-23T07:18:56.547Z,78.84
2018-03-23T07:21:59.891Z,78.36
2018-03-23T07:25:03.201Z,78.51
2018-03-23T07:28:06.493Z,78.33
2018-03-23T07:31:09.844Z,78.91
2018-03-23T07:34:13.104Z,79.15
2018-03-23T07:37:16.376Z,79.47
2018-03-23T07:40:19.673Z,79.08
2018-03-23T07:43:22.925Z,80.12
2018-03-23T07:46:26.971Z,79.92
2018-03-23T07:49:30.234Z,79.86
2018-03-23T07:52:34.252Z,78.81
2018-03-23T07:55:38.409Z,80.12
2018-03-23T07:58:41.671Z,79.49
2018-03-23T08:01:44.933Z,79.26
2018-03-23T08:04:48.206Z,79.16
2018-03-23T08:07:51.491Z,78.37
2018-03-23T08:10:54.775Z,77.23
2018-03-23T08:13:58.038Z,77.84
2018-03-23T08:17:02.161Z,78.64
2018-03-23T08:20:06.252Z,78.36
2018-03-23T08:23:09.501Z,77.67
2018-03-23T08:26:12.818Z,76.98
2018-03-23T08:29:16.138Z,78.48
2018-03-23T08:32:19.407Z,80.55
2018-03-23T08:35:22.669Z,80.70
2018-03-23T08:38:26.689Z,79.67
2018-03-23T08:41:30.812Z,78.62
2018-03-23T08:44:34.097Z,78.04
2018-03-23T08:47:38.235Z,78.80
2018-03-23T08:50:41.476Z,77.13
2018-03-23T08:53:44.732Z,77.47
2018-03-23T08:56:48.077Z,77.51
2018-03-23T08:59:51.333Z,77.61
2018-03-23T09:02:54.598Z,78.26
2018-03-23T09:05:58.647Z,78.63
2018-03-23T09:09:02.042Z,77.71
2018-03-23T09:12:05.313Z,77.29
2018-03-23T09:15:09.470Z,76.38
2018-03-23T09:18:12.740Z,75.21
2018-03-23T09:21:16.003Z,75.93
2018-03-23T09:24:19.436Z,76.56
2018-03-23T09:27:23.491Z,76.13
2018-03-23T09:30:26.853Z,76.35
2018-03-23T09:33:30.121Z,76.74
2018-03-23T09:36:34.733Z,76.52
2018-03-23T09:39:38.000Z,76.76
2018-03-23T09:42:42.129Z,77.83
2018-03-23T09:45:45.476Z,78.11
2018-03-23T09:48:49.522Z,78.17
2018-03-23T09:51:53.708Z,77.24
2018-03-23T09:54:57.726Z,76.77
2018-03-23T09:58:01.954Z,76.79
2018-03-23T10:01:06.061Z,78.04
2018-03-23T10:04:10.510Z,77.18
2018-03-23T10:07:13.874Z,77.29
2018-03-23T10:10:17.219Z,76.49
2018-03-23T10:13:20.858Z,75.64
2018-03-23T10:16:24.142Z,76.69
2018-03-23T10:19:27.533Z,75.61
2018-03-23T10:22:30.922Z,75.61
2018-03-23T10:25:34.238Z,76.08
2018-03-23T10:28:37.520Z,74.87
2018-03-23T10:31:40.815Z,74.41
2018-03-23T10:34:44.304Z,74.42
2018-03-23T10:37:47.582Z,72.72
2018-03-23T10:40:51.633Z,73.19
2018-03-23T10:43:54.905Z,74.45
2018-03-23T10:46:58.932Z,74.15
2018-03-23T10:50:02.194Z,74.16
2018-03-23T10:53:05.587Z,74.29
2018-03-23T10:56:08.886Z,74.93
2018-03-23T10:59:12.152Z,76.16
2018-03-23T11:02:20.863Z,76.01
2018-03-23T11:05:24.132Z,75.57
2018-03-23T11:08:28.164Z,74.58
2018-03-23T11:11:32.388Z,74.02
2018-03-23T11:14:35.649Z,74.35
2018-03-23T11:17:39.688Z,75.52
2018-03-23T11:20:42.953Z,74.46
2018-03-23T11:23:47.602Z,74.09
2018-03-23T11:26:51.751Z,74.27
2018-03-23T11:29:55.054Z,74.13
2018-03-23T11:32:58.316Z,73.85
2018-03-23T11:36:02.462Z,74.59
2018-03-23T11:39:05.736Z,74.38
2018-03-23T11:42:09.171Z,75.03
2018-03-23T11:45:12.437Z,74.96
2018-03-23T11:48:15.697Z,75.16
2018-03-23T11:51:19.025Z,74.65
2018-03-23T11:54:23.052Z,73.93
2018-03-23T11:57:26.322Z,74.73
2018-03-23T12:00:30.341Z,73.90
2018-03-23T12:03:34.473Z,74.40
2018-03-23T12:06:37.759Z,73.35
2018-03-23T12:09:41.792Z,74.63
2018-03-23T12:12:45.056Z,74.69
2018-03-23T12:15:48.323Z,74.34
2018-03-23T12:18:51.865Z,75.25
2018-03-23T12:21:55.124Z,75.62
2018-03-23T12:25:02.332Z,74.95
2018-03-23T12:28:05.797Z,74.26
2018-03-23T12:31:09.410Z,74.84
2018-03-23T12:34:13.687Z,76.95
2018-03-23T12:37:17.704Z,74.78
2018-03-23T12:40:21.780Z,74.56
2018-03-23T12:43:25.036Z,73.17
2018-03-23T12:46:28.316Z,72.67
2018-03-23T12:49:32.338Z,73.50
2018-03-23T12:52:36.369Z,74.59
2018-03-23T12:55:40.406Z,75.23
2018-03-23T12:58:46.870Z,75.36
2018-03-23T13:01:50.821Z,75.29
2018-03-23T13:04:54.852Z,73.87
2018-03-23T13:07:58.112Z,73.46
2018-03-23T13:11:01.368Z,73.40
2018-03-23T13:14:05.405Z,73.20
2018-03-23T13:17:08.663Z,72.31
2018-03-23T13:20:13.093Z,72.59
2018-03-23T13:23:17.119Z,72.36
2018-03-23T13:26:21.676Z,70.75
2018-03-23T13:29:24.992Z,71.75
2018-03-23T13:32:28.347Z,71.75
2018-03-23T13:35:32.425Z,70.73
2018-03-23T13:38:35.697Z,67.77
2018-03-23T13:41:39.284Z,67.93
2018-03-23T13:44:42.608Z,69.53
2018-03-23T13:47:47.115Z,69.13
2018-03-23T13:50:53.568Z,68.15
2018-03-23T13:53:57.901Z,68.57
2018-03-23T13:57:02.913Z,68.47
2018-03-23T14:03:44.293Z,68.56
2018-03-23T14:06:48.388Z,69.23
2018-03-23T14:09:51.879Z,67.59
2018-03-23T14:12:55.830Z,67.00
2018-03-23T14:16:00.346Z,67.53
2018-03-23T14:19:04.496Z,68.01
2018-03-23T14:22:07.817Z,67.97
2018-03-23T14:25:11.121Z,67.84
2018-03-23T14:28:14.484Z,68.52
2018-03-23T14:31:17.807Z,65.13
2018-03-23T14:34:21.226Z,65.80
2018-03-23T14:37:24.517Z,66.58
2018-03-23T14:40:27.828Z,67.62
2018-03-23T14:43:31.092Z,65.99
2018-03-23T14:46:34.423Z,66.80
2018-03-23T14:49:37.698Z,66.59
2018-03-23T14:52:40.967Z,66.25
2018-03-23T14:55:44.359Z,66.00
2018-03-23T14:58:53.102Z,64.82
2018-03-23T15:01:56.433Z,65.41
2018-03-23T15:04:59.736Z,66.48
2018-03-23T15:08:02.998Z,65.45
2018-03-23T15:11:06.275Z,65.45
2018-03-23T15:14:19.472Z,64.97
2018-03-23T15:17:22.892Z,64.98
2018-03-23T15:20:26.201Z,66.04
2018-03-23T15:23:29.489Z,66.09
2018-03-23T15:26:33.116Z,65.09
2018-03-23T15:29:36.422Z,65.62
2018-03-23T15:32:39.710Z,66.29
2018-03-23T15:35:43.057Z,65.91
2018-03-23T15:38:47.859Z,65.44
2018-03-23T15:41:51.326Z,65.70
2018-03-23T15:44:54.595Z,65.38
2018-03-23T15:47:57.925Z,65.37
2018-03-23T15:51:01.253Z,65.62
2018-03-23T15:54:04.504Z,65.68
2018-03-23T15:57:08.564Z,65.61
2018-03-23T16:00:11.860Z,65.95
2018-03-23T16:03:15.197Z,65.92
2018-03-23T16:06:18.464Z,66.40
2018-03-23T16:09:21.742Z,67.32
2018-03-23T16:12:25.121Z,67.03
2018-03-23T16:15:29.300Z,66.82
2018-03-23T16:18:32.732Z,67.42
2018-03-23T16:21:36.765Z,68.25
2018-03-23T16:24:40.037Z,68.19
2018-03-23T16:27:44.893Z,68.11
2018-03-23T16:30:48.161Z,67.98
2018-03-23T16:33:51.486Z,67.93
2018-03-23T16:36:54.752Z,68.04
2018-03-23T16:39:58.117Z,68.43
2018-03-23T16:43:01.482Z,68.94
2018-03-23T16:46:04.762Z,68.74
2018-03-23T16:49:08.812Z,69.04
2018-03-23T16:52:12.090Z,68.66
2018-03-23T16:55:16.114Z,69.05
2018-03-23T16:58:19.470Z,68.88
2018-03-23T17:01:23.536Z,69.24
2018-03-23T17:04:26.956Z,69.55
2018-03-23T17:07:30.301Z,69.49
2018-03-23T17:10:34.355Z,69.92
2018-03-23T17:13:37.908Z,70.10
2018-03-23T17:16:41.170Z,70.71
2018-03-23T17:19:44.600Z,71.00
2018-03-23T17:22:47.825Z,71.30
2018-03-23T17:25:51.877Z,71.28
2018-03-23T17:28:55.152Z,71.21
2018-03-23T17:31:58.414Z,71.23
2018-03-23T17:35:01.975Z,71.20
2018-03-23T17:38:06.173Z,71.31
2018-03-23T17:41:09.445Z,71.49
2018-03-23T17:44:13.591Z,70.80
2018-03-23T17:47:16.926Z,72.10
2018-03-23T17:50:20.189Z,72.26
2018-03-23T17:53:23.467Z,72.30
2018-03-23T17:56:27.508Z,72.50
2018-03-23T17:59:30.936Z,73.05
2018-03-23T18:02:34.807Z,73.54
2018-03-23T18:05:38.162Z,73.21
2018-03-23T18:08:42.225Z,73.16
2018-03-23T18:11:45.666Z,74.95
2018-03-23T18:14:48.949Z,74.48
2018-03-23T18:17:52.207Z,75.40
2018-03-23T18:20:56.541Z,75.04
2018-03-23T18:24:00.996Z,75.54
2018-03-23T18:27:04.366Z,75.66
2018-03-23T18:30:07.780Z,75.39
2018-03-23T18:33:11.085Z,75.29
2018-03-23T18:36:14.403Z,75.83
2018-03-23T18:39:17.724Z,76.35
2018-03-23T18:42:20.997Z,75.90
2018-03-23T18:45:24.272Z,75.68
2018-03-23T18:48:27.528Z,75.70
2018-03-23T18:51:30.793Z,75.49
2018-03-23T18:54:34.077Z,75.48
2018-03-23T18:57:37.364Z,75.54
2018-03-23T19:00:40.650Z,75.62
2018-03-23T19:03:43.969Z,75.93
2018-03-23T19:06:47.316Z,75.95
2018-03-23T19:09:51.695Z,75.61
2018-03-23T19:12:55.269Z,75.92
2018-03-23T19:15:58.601Z,75.94
2018-03-23T19:19:01.982Z,75.49
2018-03-23T19:22:05.363Z,75.82
2018-03-23T19:25:09.480Z,75.56
2018-03-23T19:28:12.753Z,75.75
2018-03-23T19:31:16.031Z,75.91
2018-03-23T19:34:19.348Z,75.85
2018-03-23T19:37:23.386Z,75.73
2018-03-23T19:40:27.415Z,75.67
2018-03-23T19:43:30.670Z,75.74
2018-03-23T19:46:34.781Z,75.97
2018-03-23T19:49:38.195Z,76.86
2018-03-23T19:52:42.347Z,76.79
2018-03-23T19:55:45.642Z,77.00
2018-03-23T19:58:48.913Z,76.80
2018-03-23T20:01:52.951Z,76.95
2018-03-23T20:04:56.520Z,77.29
2018-03-23T20:08:00.562Z,77.08
2018-03-23T20:11:03.837Z,76.97
2018-03-23T20:14:10.767Z,76.94
2018-03-23T20:17:14.027Z,77.01
2018-03-23T20:20:23.473Z,76.70
2018-03-23T20:23:27.487Z,76.50
2018-03-23T20:26:30.755Z,76.66
2018-03-23T20:29:34.085Z,77.04
2018-03-23T20:32:37.538Z,76.86
2018-03-23T20:35:40.881Z,77.30
2018-03-23T20:38:44.927Z,76.97
2018-03-23T20:41:48.221Z,77.18
2018-03-23T20:44:51.558Z,77.15
2018-03-23T20:47:54.820Z,76.90
2018-03-23T20:50:58.102Z,76.78
2018-03-23T20:54:01.369Z,76.88
2018-03-23T20:57:05.416Z,76.75
2018-03-23T21:00:08.728Z,76.81
2018-03-23T21:03:11.994Z,76.69
2018-03-23T21:06:16.036Z,76.95
2018-03-23T21:09:19.331Z,77.37
2018-03-23T21:12:22.601Z,77.27
2018-03-23T21:15:26.187Z,76.84
2018-03-23T21:18:29.448Z,77.43
2018-03-23T21:21:32.718Z,77.01
2018-03-23T21:24:36.032Z,77.40
2018-03-23T21:27:39.423Z,77.33
2018-03-23T21:30:43.314Z,77.36
2018-03-23T21:33:47.596Z,77.69
2018-03-23T21:36:50.869Z,78.04
2018-03-23T21:39:54.186Z,77.70
2018-03-23T21:42:57.447Z,78.45
2018-03-23T21:46:00.722Z,78.27
2018-03-23T21:49:13.025Z,77.86
2018-03-23T21:52:17.156Z,77.43
2018-03-23T21:55:20.431Z,77.32
2018-03-23T21:58:24.453Z,77.53
2018-03-23T22:01:28.498Z,77.36
2018-03-23T22:04:31.895Z,77.15
2018-03-23T22:07:35.280Z,77.12
2018-03-23T22:10:39.314Z,77.18
2018-03-23T22:13:42.578Z,76.96
2018-03-23T22:16:45.921Z,77.55
2018-03-23T22:19:49.714Z,77.43
2018-03-23T22:22:55.537Z,78.00
2018-03-23T22:26:02.425Z,77.92
2018-03-23T22:29:06.467Z,77.65
2018-03-23T22:32:09.733Z,77.37
2018-03-23T22:35:13.006Z,77.70
2018-03-23T22:38:16.272Z,78.23
2018-03-23T22:41:19.539Z,77.68
2018-03-23T22:44:23.784Z,78.18
2018-03-23T22:47:27.040Z,77.91
2018-03-23T22:50:30.860Z,77.60
2018-03-23T22:53:34.796Z,77.41
2018-03-23T22:56:38.100Z,77.42
2018-03-23T22:59:41.381Z,77.21
2018-03-23T23:02:45.398Z,77.46
2018-03-23T23:05:48.687Z,77.55
2018-03-23T23:08:52.052Z,77.47
2018-03-23T23:11:55.326Z,77.50
2018-03-23T23:14:58.598Z,77.67
2018-03-23T23:18:01.888Z,77.57
2018-03-23T23:21:05.926Z,77.44
2018-03-23T23:24:09.213Z,78.01
2018-03-23T23:27:12.476Z,77.91
2018-03-23T23:30:16.510Z,77.76
2018-03-23T23:33:19.967Z,77.82
2018-03-23T23:36:23.460Z,77.77
2018-03-23T23:39:27.353Z,77.67
2018-03-23T23:42:30.618Z,77.81
2018-03-23T23:45:34.696Z,77.98
2018-03-23T23:48:37.952Z,77.81
2018-03-23T23:51:41.214Z,77.91
2018-03-23T23:54:45.553Z,78.94
2018-03-23T23:57:49.596Z,79.17
